createdAt,value
2019-04-16T00:00:26.945Z,5.44
2019-04-16T00:03:00.437Z,5.41
2019-04-16T00:05:36.665Z,5.41
2019-04-16T00:08:27.077Z,5.21
2019-04-16T00:11:04.571Z,5.22
2019-04-16T00:13:52.412Z,5.17
2019-04-16T00:16:24.013Z,5.31
2019-04-16T00:18:57.901Z,5.40
2019-04-16T00:21:46.203Z,5.33
2019-04-16T00:24:22.880Z,5.42
2019-04-16T00:26:57.990Z,5.34
2019-04-16T00:29:32.617Z,5.22
2019-04-16T00:32:09.129Z,5.16
2019-04-16T00:34:39.679Z,5.05
2019-04-16T00:37:13.143Z,5.06
2019-04-16T00:39:44.437Z,5.27
2019-04-16T00:42:15.799Z,5.25
2019-04-16T00:44:48.399Z,5.16
2019-04-16T00:47:19.798Z,5.17
2019-04-16T00:49:51.478Z,5.21
2019-04-16T00:52:25.690Z,5.29
2019-04-16T00:54:57.094Z,5.21
2019-04-16T00:57:28.332Z,5.10
2019-04-16T00:59:59.528Z,5.18
2019-04-16T01:02:31.492Z,4.98
2019-04-16T01:05:03.199Z,4.99
2019-04-16T01:07:34.939Z,5.13
2019-04-16T01:10:06.454Z,5.00
2019-04-16T01:12:38.936Z,4.97
2019-04-16T01:15:10.747Z,5.06
2019-04-16T01:17:41.945Z,5.03
2019-04-16T01:20:13.613Z,5.06
2019-04-16T01:22:46.830Z,5.08
2019-04-16T01:25:20.228Z,4.94
2019-04-16T01:28:00.984Z,4.91
2019-04-16T01:30:47.757Z,4.88
2019-04-16T01:33:43.395Z,4.78
2019-04-16T01:36:36.358Z,4.83
2019-04-16T01:39:17.698Z,4.68
2019-04-16T01:41:41.764Z,4.86
2019-04-16T01:44:12.971Z,4.73
2019-04-16T01:46:44.167Z,4.80
2019-04-16T01:49:15.517Z,4.92
2019-04-16T01:51:47.482Z,4.95
2019-04-16T01:54:22.581Z,4.99
2019-04-16T01:56:52.203Z,4.97
2019-04-16T01:59:23.570Z,5.02
2019-04-16T02:01:55.328Z,5.10
2019-04-16T02:04:27.115Z,5.10
2019-04-16T02:06:58.409Z,5.00
2019-04-16T02:09:34.142Z,4.87
2019-04-16T02:12:02.589Z,4.98
2019-04-16T02:14:33.783Z,4.94
2019-04-16T02:17:06.522Z,5.04
2019-04-16T02:19:41.016Z,5.04
2019-04-16T02:22:14.001Z,4.98
2019-04-16T02:24:47.786Z,4.94
2019-04-16T02:27:18.741Z,4.81
2019-04-16T02:29:53.637Z,4.84
2019-04-16T02:32:24.073Z,4.86
2019-04-16T02:34:55.359Z,4.94
2019-04-16T02:37:26.690Z,4.92
2019-04-16T02:39:57.934Z,4.90
2019-04-16T02:42:31.978Z,5.07
2019-04-16T02:45:02.202Z,4.91
2019-04-16T02:47:39.959Z,5.09
2019-04-16T02:50:09.736Z,4.90
2019-04-16T02:52:51.211Z,4.88
2019-04-16T02:55:43.905Z,4.87
2019-04-16T02:58:25.831Z,4.95
2019-04-16T03:01:14.407Z,5.05
2019-04-16T03:03:56.216Z,5.12
2019-04-16T03:06:31.700Z,5.12
2019-04-16T03:09:00.176Z,5.02
2019-04-16T03:11:31.601Z,5.07
2019-04-16T03:14:02.893Z,5.15
2019-04-16T03:16:55.441Z,5.15
2019-04-16T03:19:32.975Z,5.10
2019-04-16T03:22:04.597Z,5.17
2019-04-16T03:24:37.613Z,5.21
2019-04-16T03:27:08.620Z,5.23
2019-04-16T03:29:39.900Z,5.30
2019-04-16T03:32:14.726Z,5.23
2019-04-16T03:34:44.455Z,5.02
2019-04-16T03:37:15.597Z,4.93
2019-04-16T03:39:46.842Z,4.98
2019-04-16T03:42:18.318Z,4.96
2019-04-16T03:44:49.543Z,4.95
2019-04-16T03:47:20.909Z,4.85
2019-04-16T03:49:52.058Z,4.93
2019-04-16T03:52:24.009Z,4.90
2019-04-16T03:54:55.400Z,4.91
2019-04-16T03:57:26.714Z,4.83
2019-04-16T04:00:00.653Z,4.84
2019-04-16T04:02:30.805Z,4.79
2019-04-16T04:05:06.397Z,4.77
2019-04-16T04:07:34.911Z,4.80
2019-04-16T04:10:06.540Z,4.83
2019-04-16T04:12:37.794Z,4.74
2019-04-16T04:15:09.541Z,4.84
2019-04-16T04:17:42.403Z,4.80
2019-04-16T04:20:14.857Z,4.75
2019-04-16T04:22:47.004Z,4.72
2019-04-16T04:25:18.252Z,4.70
2019-04-16T04:27:49.854Z,4.69
2019-04-16T04:30:25.601Z,4.69
2019-04-16T04:32:55.745Z,4.72
2019-04-16T04:35:27.372Z,4.64
2019-04-16T04:38:00.713Z,4.70
2019-04-16T04:40:43.735Z,4.61
2019-04-16T04:43:04.852Z,4.70
2019-04-16T04:45:37.673Z,4.68
2019-04-16T04:48:11.662Z,4.81
2019-04-16T04:50:42.343Z,4.73
2019-04-16T04:53:15.653Z,4.73
2019-04-16T04:55:46.596Z,4.72
2019-04-16T04:58:18.050Z,4.75
2019-04-16T05:00:50.132Z,4.78
2019-04-16T05:03:41.039Z,4.89
2019-04-16T05:06:15.391Z,4.88
2019-04-16T05:08:46.648Z,4.85
2019-04-16T05:11:19.237Z,4.85
2019-04-16T05:13:53.454Z,4.94
2019-04-16T05:16:24.242Z,4.90
2019-04-16T05:18:56.954Z,4.95
2019-04-16T05:21:28.359Z,4.97
2019-04-16T05:23:59.611Z,4.99
2019-04-16T05:26:33.562Z,4.97
2019-04-16T05:29:16.880Z,5.02
2019-04-16T05:31:47.242Z,5.07
2019-04-16T05:34:19.113Z,5.20
2019-04-16T05:36:54.036Z,5.15
2019-04-16T05:39:29.094Z,5.21
2019-04-16T05:42:00.730Z,5.21
2019-04-16T05:44:34.031Z,5.29
2019-04-16T05:47:05.705Z,5.35
2019-04-16T05:49:38.605Z,5.48
2019-04-16T05:52:10.166Z,5.43
2019-04-16T05:55:02.941Z,5.56
2019-04-16T05:57:38.776Z,5.52
2019-04-16T06:00:28.344Z,5.56
2019-04-16T06:02:59.719Z,5.58
2019-04-16T06:05:32.088Z,5.67
2019-04-16T06:08:10.721Z,5.83
2019-04-16T06:11:04.832Z,5.86
2019-04-16T06:14:03.874Z,5.85
2019-04-16T06:17:00.224Z,5.97
2019-04-16T06:19:48.340Z,6.23
2019-04-16T06:22:38.736Z,6.35
2019-04-16T06:25:27.718Z,6.37
2019-04-16T06:28:16.780Z,6.52
2019-04-16T06:31:05.080Z,6.56
2019-04-16T06:34:58.355Z,6.58
2019-04-16T06:37:39.142Z,6.63
2019-04-16T06:40:31.711Z,6.74
2019-04-16T06:43:08.010Z,6.87
2019-04-16T06:46:02.366Z,7.00
2019-04-16T06:48:36.905Z,6.97
2019-04-16T06:51:26.696Z,7.01
2019-04-16T06:54:17.033Z,6.99
2019-04-16T06:57:05.934Z,6.93
2019-04-16T07:00:07.334Z,7.04
2019-04-16T07:03:02.541Z,7.16
2019-04-16T07:05:41.646Z,7.27
2019-04-16T07:08:22.504Z,7.34
2019-04-16T07:10:59.222Z,7.41
2019-04-16T07:13:31.768Z,7.43
2019-04-16T07:16:04.226Z,7.58
2019-04-16T07:18:38.630Z,7.52
2019-04-16T07:21:14.539Z,7.94
2019-04-16T07:23:47.829Z,8.95
2019-04-16T07:26:19.536Z,9.55
2019-04-16T07:28:58.964Z,10.20
2019-04-16T07:31:39.130Z,10.43
2019-04-16T07:34:37.425Z,11.07
2019-04-16T07:37:23.172Z,11.31
2019-04-16T07:40:10.266Z,10.66
2019-04-16T07:43:04.510Z,10.07
2019-04-16T07:45:57.315Z,9.99
2019-04-16T07:48:51.489Z,10.41
2019-04-16T07:51:47.086Z,10.47
2019-04-16T07:54:30.408Z,10.17
2019-04-16T07:57:03.960Z,10.50
2019-04-16T07:59:35.718Z,11.34
2019-04-16T08:02:07.819Z,11.23
2019-04-16T08:04:39.539Z,12.00
2019-04-16T08:07:12.394Z,12.01
2019-04-16T08:09:43.904Z,11.88
2019-04-16T08:12:29.350Z,11.76
2019-04-16T08:14:49.029Z,12.16
2019-04-16T08:17:21.458Z,11.63
2019-04-16T08:19:55.589Z,11.36
2019-04-16T08:22:29.789Z,11.05
2019-04-16T08:25:03.231Z,11.23
2019-04-16T08:27:37.243Z,11.08
2019-04-16T08:30:11.044Z,11.37
2019-04-16T08:32:45.862Z,11.76
2019-04-16T08:35:21.018Z,12.27
2019-04-16T08:37:52.766Z,12.25
2019-04-16T08:40:35.528Z,11.82
2019-04-16T08:43:07.538Z,11.68
2019-04-16T08:45:42.793Z,12.14
2019-04-16T08:48:18.669Z,12.22
2019-04-16T08:53:46.796Z,11.35
2019-04-16T08:56:28.224Z,11.71
2019-04-16T08:59:10.767Z,11.69
2019-04-16T09:01:45.990Z,10.90
2019-04-16T09:04:28.472Z,11.06
2019-04-16T09:07:16.356Z,10.39
2019-04-16T09:09:50.906Z,10.51
2019-04-16T09:12:25.412Z,10.15
2019-04-16T09:14:59.071Z,10.08
2019-04-16T09:18:06.998Z,11.32
2019-04-16T09:20:43.626Z,11.57
2019-04-16T09:23:15.207Z,11.24
2019-04-16T09:26:14.133Z,11.27
2019-04-16T09:29:08.144Z,10.91
2019-04-16T09:31:43.236Z,10.77
2019-04-16T09:34:39.621Z,11.28
2019-04-16T09:37:28.610Z,11.23
2019-04-16T09:40:32.125Z,11.39
2019-04-16T09:43:17.270Z,11.45
2019-04-16T09:45:48.161Z,11.73
2019-04-16T09:48:20.123Z,11.41
2019-04-16T09:50:51.518Z,11.49
2019-04-16T09:53:55.110Z,11.58
2019-04-16T09:56:28.950Z,11.14
2019-04-16T09:59:23.672Z,11.12
2019-04-16T10:02:01.064Z,11.30
2019-04-16T10:04:36.601Z,11.28
2019-04-16T10:07:10.290Z,11.28
2019-04-16T10:09:41.588Z,11.05
2019-04-16T10:12:12.904Z,10.90
2019-04-16T10:14:45.766Z,10.65
2019-04-16T10:17:18.196Z,10.94
2019-04-16T10:20:09.515Z,10.92
2019-04-16T10:22:40.868Z,10.89
2019-04-16T10:25:14.958Z,10.94
2019-04-16T10:27:55.545Z,10.79
2019-04-16T10:30:52.830Z,10.56
2019-04-16T10:33:24.196Z,10.57
2019-04-16T10:35:57.599Z,10.78
2019-04-16T10:38:50.139Z,10.68
2019-04-16T10:41:52.287Z,10.80
2019-04-16T10:44:39.379Z,10.87
2019-04-16T10:47:35.787Z,10.58
2019-04-16T10:50:13.507Z,10.56
2019-04-16T10:53:02.293Z,10.73
2019-04-16T10:55:55.524Z,10.82
2019-04-16T10:58:54.920Z,10.62
2019-04-16T11:01:54.231Z,10.76
2019-04-16T11:04:44.468Z,10.71
2019-04-16T11:07:22.655Z,10.75
2019-04-16T11:09:54.067Z,10.62
2019-04-16T11:12:25.317Z,10.84
2019-04-16T11:14:56.941Z,10.77
2019-04-16T11:17:28.772Z,10.72
2019-04-16T11:20:00.407Z,10.57
2019-04-16T11:22:32.817Z,10.78
2019-04-16T11:25:06.670Z,10.80
2019-04-16T11:27:38.096Z,10.71
2019-04-16T11:30:15.029Z,10.84
2019-04-16T11:32:46.430Z,10.52
2019-04-16T11:35:19.415Z,10.65
2019-04-16T11:37:50.686Z,10.52
2019-04-16T11:40:22.347Z,10.58
2019-04-16T11:42:54.753Z,10.67
2019-04-16T11:45:27.064Z,10.67
2019-04-16T11:47:58.440Z,10.36
2019-04-16T11:50:29.786Z,10.54
2019-04-16T11:53:01.042Z,10.61
2019-04-16T11:55:32.433Z,10.54
2019-04-16T11:58:05.460Z,10.35
2019-04-16T12:00:44.086Z,10.50
2019-04-16T12:03:20.181Z,10.60
2019-04-16T12:06:10.701Z,10.51
2019-04-16T12:09:16.582Z,10.51
2019-04-16T12:11:52.359Z,10.66
2019-04-16T12:14:52.192Z,10.77
2019-04-16T12:17:42.548Z,10.97
2019-04-16T12:20:27.578Z,11.02
2019-04-16T12:23:14.004Z,10.90
2019-04-16T12:26:09.096Z,10.93
2019-04-16T12:29:23.212Z,10.98
2019-04-16T12:32:14.093Z,10.89
2019-04-16T12:34:59.741Z,10.95
2019-04-16T12:37:50.352Z,11.09
2019-04-16T12:40:49.759Z,11.15
2019-04-16T12:43:34.376Z,11.27
2019-04-16T12:46:31.524Z,11.28
2019-04-16T12:49:27.836Z,11.26
2019-04-16T12:52:28.387Z,11.32
2019-04-16T12:55:19.528Z,11.14
2019-04-16T12:58:10.958Z,11.32
2019-04-16T13:01:04.826Z,11.27
2019-04-16T13:03:46.895Z,11.18
2019-04-16T13:06:44.769Z,11.23
2019-04-16T13:09:33.661Z,11.15
2019-04-16T13:12:32.666Z,11.27
2019-04-16T13:15:28.099Z,11.39
2019-04-16T13:18:06.535Z,11.37
2019-04-16T13:21:03.902Z,11.20
2019-04-16T13:23:54.880Z,11.30
2019-04-16T13:26:35.203Z,11.54
2019-04-16T13:29:12.101Z,11.59
2019-04-16T13:31:44.360Z,11.49
2019-04-16T13:34:18.704Z,11.51
2019-04-16T13:36:51.647Z,11.58
2019-04-16T13:39:31.686Z,11.66
2019-04-16T13:42:04.712Z,11.49
2019-04-16T13:44:46.323Z,11.22
2019-04-16T13:47:21.670Z,11.28
2019-04-16T13:50:13.776Z,11.32
2019-04-16T13:52:48.769Z,11.39
2019-04-16T13:55:44.629Z,11.50
2019-04-16T13:58:44.033Z,11.51
2019-04-16T14:01:25.727Z,11.57
2019-04-16T14:04:05.439Z,11.41
2019-04-16T14:06:38.048Z,11.51
2019-04-16T14:09:11.256Z,11.45
2019-04-16T14:11:42.888Z,11.39
2019-04-16T14:14:18.163Z,11.43
2019-04-16T14:16:48.621Z,11.31
2019-04-16T14:19:21.171Z,11.28
2019-04-16T14:21:52.773Z,11.31
2019-04-16T14:24:27.026Z,11.34
2019-04-16T14:26:59.766Z,11.12
2019-04-16T14:29:31.399Z,11.12
2019-04-16T14:32:05.874Z,11.21
2019-04-16T14:35:01.723Z,11.36
2019-04-16T14:37:33.140Z,11.36
2019-04-16T14:40:12.163Z,11.30
2019-04-16T14:42:44.692Z,11.34
2019-04-16T14:45:53.619Z,11.30
2019-04-16T14:48:12.303Z,11.38
2019-04-16T14:50:45.631Z,11.39
2019-04-16T14:53:34.450Z,11.31
2019-04-16T14:56:25.102Z,11.29
2019-04-16T14:59:30.414Z,11.46
2019-04-16T15:02:03.154Z,11.49
2019-04-16T15:04:52.986Z,11.52
2019-04-16T15:07:56.882Z,11.56
2019-04-16T15:10:48.280Z,11.45
2019-04-16T15:13:32.902Z,11.45
2019-04-16T15:16:22.269Z,11.34
2019-04-16T15:19:26.876Z,11.40
2019-04-16T15:22:36.244Z,11.28
2019-04-16T15:25:19.474Z,11.40
2019-04-16T15:28:09.763Z,11.29
2019-04-16T15:31:00.728Z,11.33
2019-04-16T15:33:57.043Z,11.40
2019-04-16T15:36:54.909Z,11.34
2019-04-16T15:39:45.699Z,11.47
2019-04-16T15:42:34.735Z,11.34
2019-04-16T15:45:28.933Z,11.31
2019-04-16T15:48:30.995Z,11.36
2019-04-16T15:51:13.565Z,11.26
2019-04-16T15:54:02.165Z,11.25
2019-04-16T15:56:39.615Z,11.28
2019-04-16T15:59:36.324Z,11.30
2019-04-16T16:02:29.462Z,11.12
2019-04-16T16:05:06.212Z,11.12
2019-04-16T16:07:43.354Z,11.18
2019-04-16T16:10:26.371Z,11.12
2019-04-16T16:12:57.949Z,10.95
2019-04-16T16:15:29.174Z,10.97
2019-04-16T16:18:00.530Z,11.12
2019-04-16T16:20:31.758Z,10.94
2019-04-16T16:23:03.020Z,10.99
2019-04-16T16:25:34.371Z,10.96
2019-04-16T16:28:05.563Z,11.01
2019-04-16T16:30:36.898Z,11.02
2019-04-16T16:33:08.220Z,10.96
2019-04-16T16:35:39.571Z,10.93
2019-04-16T16:38:14.107Z,10.97
2019-04-16T16:40:49.435Z,10.99
2019-04-16T16:43:18.936Z,10.87
2019-04-16T16:46:24.327Z,10.88
2019-04-16T16:48:56.302Z,10.93
2019-04-16T16:51:27.685Z,10.88
2019-04-16T16:54:17.792Z,10.78
2019-04-16T16:57:11.418Z,10.65
2019-04-16T16:59:57.063Z,10.47
2019-04-16T17:02:42.677Z,10.43
2019-04-16T17:05:18.557Z,10.38
2019-04-16T17:07:53.550Z,10.35
2019-04-16T17:10:24.000Z,10.30
2019-04-16T17:12:55.318Z,10.26
2019-04-16T17:15:26.905Z,10.25
2019-04-16T17:17:58.489Z,10.32
2019-04-16T17:20:30.800Z,10.39
2019-04-16T17:23:02.413Z,10.24
2019-04-16T17:25:36.561Z,10.08
2019-04-16T17:28:07.650Z,10.07
2019-04-16T17:30:39.161Z,10.06
2019-04-16T17:33:10.890Z,10.12
2019-04-16T17:35:46.215Z,10.15
2019-04-16T17:38:15.816Z,10.04
2019-04-16T17:41:08.080Z,9.91
2019-04-16T17:44:00.609Z,9.80
2019-04-16T17:46:37.276Z,9.76
2019-04-16T17:49:30.606Z,9.81
2019-04-16T17:52:15.731Z,9.80
2019-04-16T17:54:56.209Z,9.80
2019-04-16T17:57:44.993Z,9.78
2019-04-16T18:00:37.742Z,9.63
2019-04-16T18:03:27.814Z,9.49
2019-04-16T18:06:17.965Z,9.51
2019-04-16T18:09:07.718Z,9.42
2019-04-16T18:12:04.858Z,9.42
2019-04-16T18:14:53.940Z,9.27
2019-04-16T18:17:46.839Z,9.19
2019-04-16T18:20:26.888Z,9.13
2019-04-16T18:23:17.003Z,9.12
2019-04-16T18:26:22.315Z,9.05
2019-04-16T18:29:02.711Z,8.98
2019-04-16T18:31:40.102Z,8.97
2019-04-16T18:34:21.170Z,8.97
2019-04-16T18:37:10.344Z,8.99
2019-04-16T18:39:47.944Z,8.90
2019-04-16T18:42:24.366Z,8.85
2019-04-16T18:45:14.041Z,8.82
2019-04-16T18:48:12.954Z,8.86
2019-04-16T18:50:40.100Z,8.80
2019-04-16T18:53:11.418Z,8.77
2019-04-16T18:55:42.818Z,8.75
2019-04-16T18:58:14.066Z,8.81
2019-04-16T19:00:50.292Z,8.85
2019-04-16T19:03:21.468Z,8.82
2019-04-16T19:05:52.611Z,8.81
2019-04-16T19:08:24.450Z,8.82
2019-04-16T19:10:55.617Z,8.86
2019-04-16T19:13:26.828Z,8.77
2019-04-16T19:15:58.010Z,8.81
2019-04-16T19:18:29.187Z,8.79
2019-04-16T19:21:00.636Z,8.81
2019-04-16T19:23:31.824Z,8.82
2019-04-16T19:26:03.418Z,8.84
2019-04-16T19:28:36.365Z,8.86
2019-04-16T19:31:08.513Z,8.87
2019-04-16T19:33:39.696Z,8.83
2019-04-16T19:36:10.844Z,8.85
2019-04-16T19:38:42.120Z,8.85
2019-04-16T19:41:13.337Z,8.88
2019-04-16T19:43:44.847Z,8.90
2019-04-16T19:46:16.357Z,8.88
2019-04-16T19:48:49.020Z,8.90
2019-04-16T19:51:20.235Z,8.91
2019-04-16T19:53:51.465Z,8.92
2019-04-16T19:56:22.995Z,8.89
2019-04-16T19:58:55.270Z,8.89
2019-04-16T20:01:27.209Z,8.92
2019-04-16T20:03:58.434Z,8.91
2019-04-16T20:06:29.628Z,8.93
2019-04-16T20:09:00.878Z,8.87
2019-04-16T20:11:33.614Z,8.89
2019-04-16T20:14:05.180Z,8.86
2019-04-16T20:16:36.492Z,8.86
2019-04-16T20:19:07.711Z,8.81
2019-04-16T20:21:39.870Z,8.79
2019-04-16T20:24:12.237Z,8.81
2019-04-16T20:26:43.465Z,8.81
2019-04-16T20:29:15.038Z,8.79
2019-04-16T20:31:46.367Z,8.78
2019-04-16T20:34:19.820Z,8.77
2019-04-16T20:36:52.246Z,8.77
2019-04-16T20:39:24.704Z,8.79
2019-04-16T20:41:59.274Z,8.77
2019-04-16T20:44:28.886Z,8.77
2019-04-16T20:47:03.614Z,8.76
2019-04-16T20:49:32.869Z,8.71
2019-04-16T20:52:04.519Z,8.72
2019-04-16T20:54:36.674Z,8.68
2019-04-16T20:57:08.036Z,8.69
2019-04-16T20:59:39.369Z,8.66
2019-04-16T21:02:11.185Z,8.62
2019-04-16T21:04:44.158Z,8.64
2019-04-16T21:07:15.571Z,8.58
2019-04-16T21:09:46.787Z,8.54
2019-04-16T21:12:18.023Z,8.54
2019-04-16T21:14:50.889Z,8.51
2019-04-16T21:17:22.697Z,8.48
2019-04-16T21:19:54.447Z,8.47
2019-04-16T21:22:28.007Z,8.47
2019-04-16T21:24:58.727Z,8.44
2019-04-16T21:27:31.412Z,8.41
2019-04-16T21:30:08.589Z,8.38
2019-04-16T21:32:50.923Z,8.33
2019-04-16T21:35:28.675Z,8.35
2019-04-16T21:38:21.992Z,8.29
2019-04-16T21:40:56.219Z,8.25
2019-04-16T21:43:26.284Z,8.19
2019-04-16T21:45:57.593Z,8.22
2019-04-16T21:48:28.810Z,8.18
2019-04-16T21:50:59.967Z,8.19
2019-04-16T21:53:31.251Z,8.16
2019-04-16T21:56:06.353Z,8.20
2019-04-16T21:58:37.168Z,8.17
2019-04-16T22:01:16.339Z,8.16
2019-04-16T22:03:52.671Z,8.15
2019-04-16T22:06:24.046Z,8.08
2019-04-16T22:08:55.927Z,8.08
2019-04-16T22:11:27.662Z,8.03
2019-04-16T22:13:58.801Z,8.01
2019-04-16T22:16:30.599Z,8.02
2019-04-16T22:19:02.116Z,8.05
2019-04-16T22:21:33.785Z,8.00
2019-04-16T22:24:06.549Z,8.03
2019-04-16T22:26:37.694Z,7.98
2019-04-16T22:29:09.623Z,7.96
2019-04-16T22:31:40.941Z,7.94
2019-04-16T22:34:12.081Z,7.95
2019-04-16T22:36:43.227Z,7.95
2019-04-16T22:39:35.758Z,7.96
2019-04-16T22:42:20.924Z,7.91
2019-04-16T22:45:11.028Z,7.90
2019-04-16T22:48:17.982Z,7.95
2019-04-16T22:50:49.205Z,7.90
2019-04-16T22:53:20.392Z,7.95
2019-04-16T22:55:56.349Z,7.77
2019-04-16T22:58:46.265Z,7.76
2019-04-16T23:01:17.899Z,7.74
2019-04-16T23:03:53.320Z,7.72
2019-04-16T23:06:23.187Z,7.73
2019-04-16T23:08:54.312Z,7.63
2019-04-16T23:11:25.552Z,7.73
2019-04-16T23:13:57.101Z,7.71
2019-04-16T23:16:28.819Z,7.72
2019-04-16T23:18:59.979Z,7.61
2019-04-16T23:21:31.195Z,7.55
2019-04-16T23:24:02.733Z,7.54
2019-04-16T23:26:33.864Z,7.53
2019-04-16T23:29:05.011Z,7.55
2019-04-16T23:31:36.645Z,7.55
2019-04-16T23:34:07.814Z,7.54
2019-04-16T23:36:39.134Z,7.52
2019-04-16T23:39:10.264Z,7.50
2019-04-16T23:41:41.462Z,7.51
2019-04-16T23:44:50.820Z,7.54
2019-04-16T23:47:42.001Z,7.49
2019-04-16T23:53:25.738Z,7.43
2019-04-16T23:56:14.168Z,7.46
2019-04-16T23:59:01.366Z,7.39
